KSAN/SAN METAR and TAF weather

Enter ICAO airport designator
Station Type Date Time Source
KSAN METAR 2018/12/10 13:51 UTC NOAA

KSAN 101351Z 27003KT 10SM BKN220 13/09 A3010 RMK AO2 SLP193 T01330094


Station Type Date Time Source
KSAN Decoded METAR 2018/12/10 13:51 UTC NOAA

SAN DIEGO INTERNATIONAL \LINDBERGH FLD, CA, United States (KSAN) 32-44N 117-11W 12M
Dec 10, 2018 - 08:51 AM EST / 2018.12.10 1351 UTC
Wind: from the W (270 degrees) at 3 MPH (3 KT):0
Visibility: 10 mile(s):0
Sky conditions: mostly cloudy
Temperature: 55.9 F (13.3 C)
Dew Point: 48.9 F (9.4 C)
Relative Humidity: 77%
Pressure (altimeter): 30.1 in. Hg (1019 hPa)
ob: KSAN 101351Z 27003KT 10SM BKN220 13/09 A3010 RMK AO2 SLP193 T01330094
cycle: 14

Station Type Date Time Source
KSAN TAF 2018/12/10 12:21 UTC NOAA

TAF KSAN 101120Z 1012/1118 VRB04KT P6SM BKN200
FM102100 30009KT P6SM BKN200
FM110100 VRB04KT P6SM SCT018 BKN200
FM110700 VRB04KT P6SM BKN015
FM111700 VRB03KT P6SM SCT015 SCT200


Example: see airport list